KLOZ/LOZ METAR and TAF weather

Enter ICAO airport designator
Station Type Date Time Source
KLOZ METAR 2019/05/25 09:53 UTC NOAA

KLOZ 250953Z AUTO 19003KT 8SM FEW100 19/18 A3013 RMK AO2 SLP189 T01890183


Station Type Date Time Source
KLOZ Decoded METAR 2019/05/25 09:53 UTC NOAA

LONDON-CORBIN AIRPORT, KY, United States (KLOZ) 37-05N 084-04W 362M
May 25, 2019 - 05:53 AM EDT / 2019.05.25 0953 UTC
Wind: from the S (190 degrees) at 3 MPH (3 KT):0
Visibility: 8 mile(s):0
Sky conditions: mostly clear
Temperature: 66.0 F (18.9 C)
Dew Point: 64.9 F (18.3 C)
Relative Humidity: 96%
Pressure (altimeter): 30.13 in. Hg (1020 hPa)
ob: KLOZ 250953Z AUTO 19003KT 8SM FEW100 19/18 A3013 RMK AO2 SLP189 T01890183
cycle: 10

Station Type Date Time Source
KLOZ TAF 2019/05/25 06:40 UTC NOAA

TAF KLOZ 250538Z 2506/2606 00000KT P6SM SKC
FM250800 00000KT P6SM VCSH SCT050 SCT110
FM251400 25010KT P6SM VCSH SCT050 SCT110
FM252000 24005KT P6SM FEW050 FEW250

Example: see airport list